createdAt,value
2019-03-20T00:00:15.726Z,94679.03
2019-03-20T00:02:44.392Z,94688.05
2019-03-20T00:05:13.106Z,94679.66
2019-03-20T00:07:41.751Z,94684.31
2019-03-20T00:10:11.474Z,94683.80
2019-03-20T00:12:40.099Z,94684.12
2019-03-20T00:15:13.397Z,94685.50
2019-03-20T00:17:42.056Z,94685.28
2019-03-20T00:20:11.986Z,94690.88
2019-03-20T00:22:42.973Z,94685.85
2019-03-20T00:25:11.603Z,94692.33
2019-03-20T00:27:40.230Z,94688.22
2019-03-20T00:30:14.609Z,94700.35
2019-03-20T00:32:43.295Z,94697.34
2019-03-20T00:35:12.032Z,94694.54
2019-03-20T00:37:40.662Z,94696.36
2019-03-20T00:40:12.080Z,94693.23
2019-03-20T00:42:40.666Z,94702.94
2019-03-20T00:45:13.978Z,94705.83
2019-03-20T00:47:42.641Z,94702.57
2019-03-20T00:50:16.112Z,94705.05
2019-03-20T00:52:44.744Z,94699.13
2019-03-20T00:55:17.018Z,94706.39
2019-03-20T00:57:45.663Z,94700.81
2019-03-20T01:00:19.139Z,94694.77
2019-03-20T01:02:47.804Z,94689.84
2019-03-20T01:05:16.534Z,94693.08
2019-03-20T01:07:45.642Z,94692.86
2019-03-20T01:10:21.250Z,94691.88
2019-03-20T01:12:49.987Z,94691.26
2019-03-20T01:15:18.604Z,94692.70
2019-03-20T01:17:47.261Z,94689.87
2019-03-20T01:20:19.861Z,94699.58
2019-03-20T01:22:48.578Z,94702.66
2019-03-20T01:25:18.101Z,94702.88
2019-03-20T01:27:46.790Z,94701.70
2019-03-20T01:30:38.721Z,94698.78
2019-03-20T01:33:09.521Z,94701.59
2019-03-20T01:38:50.664Z,94703.67
2019-03-20T01:41:19.326Z,94704.70
2019-03-20T01:43:47.930Z,94700.38
2019-03-20T01:46:16.597Z,94707.06
2019-03-20T01:48:45.227Z,94713.29
2019-03-20T01:51:21.528Z,94707.50
2019-03-20T01:53:50.298Z,94712.72
2019-03-20T01:56:18.913Z,94711.89
2019-03-20T01:58:47.545Z,94711.96
2019-03-20T02:01:16.207Z,94714.81
2019-03-20T02:03:44.830Z,94719.84
2019-03-20T02:06:13.456Z,94715.62
2019-03-20T02:08:42.203Z,94718.77
2019-03-20T02:11:10.825Z,94723.36
2019-03-20T02:13:39.447Z,94730.47
2019-03-20T02:16:08.106Z,94732.55
2019-03-20T02:18:36.723Z,94728.05
2019-03-20T02:21:05.343Z,94728.58
2019-03-20T02:23:34.020Z,94733.84
2019-03-20T02:26:02.706Z,94731.32
2019-03-20T02:28:31.334Z,94732.28
2019-03-20T02:30:59.999Z,94733.53
2019-03-20T02:33:28.620Z,94732.08
2019-03-20T02:35:57.253Z,94733.53
2019-03-20T02:38:25.927Z,94735.08
2019-03-20T02:40:54.549Z,94732.19
2019-03-20T02:43:23.168Z,94723.75
2019-03-20T02:45:51.833Z,94722.84
2019-03-20T02:48:20.379Z,94725.34
2019-03-20T02:50:49.015Z,94731.70
2019-03-20T02:53:17.594Z,94730.98
2019-03-20T02:55:46.215Z,94736.03
2019-03-20T02:58:14.841Z,94739.81
2019-03-20T03:00:43.489Z,94737.14
2019-03-20T03:03:12.122Z,94737.20
2019-03-20T03:05:40.745Z,94740.09
2019-03-20T03:08:09.468Z,94739.54
2019-03-20T03:10:38.099Z,94743.06
2019-03-20T03:13:06.719Z,94742.89
2019-03-20T03:15:35.392Z,94746.59
2019-03-20T03:18:04.026Z,94759.59
2019-03-20T03:20:32.650Z,94755.13
2019-03-20T03:23:01.328Z,94755.84
2019-03-20T03:25:29.969Z,94754.56
2019-03-20T03:27:58.580Z,94760.33
2019-03-20T03:30:27.233Z,94755.00
2019-03-20T03:32:55.843Z,94762.04
2019-03-20T03:35:24.487Z,94753.45
2019-03-20T03:37:53.139Z,94755.70
2019-03-20T03:40:21.767Z,94758.05
2019-03-20T03:42:50.380Z,94761.47
2019-03-20T03:45:19.027Z,94772.56
2019-03-20T03:47:47.722Z,94771.48
2019-03-20T03:50:16.351Z,94771.48
2019-03-20T03:52:45.019Z,94774.63
2019-03-20T03:55:14.536Z,94779.46
2019-03-20T03:57:43.386Z,94780.22
2019-03-20T04:00:16.357Z,94780.84
2019-03-20T04:02:44.924Z,94782.71
2019-03-20T04:05:13.872Z,94777.22
2019-03-20T04:07:42.589Z,94782.61
2019-03-20T04:10:13.021Z,94782.77
2019-03-20T04:12:41.650Z,94784.89
2019-03-20T04:15:12.483Z,94786.55
2019-03-20T04:17:41.252Z,94786.55
2019-03-20T04:20:12.354Z,94787.30
2019-03-20T04:22:41.151Z,94796.39
2019-03-20T04:25:10.567Z,94799.83
2019-03-20T04:27:39.249Z,94695.42
2019-03-20T04:30:14.095Z,94790.78
2019-03-20T04:32:42.710Z,94798.05
2019-03-20T04:35:11.451Z,94805.59
2019-03-20T04:37:40.132Z,94806.19
2019-03-20T04:40:13.107Z,94805.25
2019-03-20T04:42:41.732Z,94805.25
2019-03-20T04:45:14.760Z,94819.75
2019-03-20T04:47:43.578Z,94824.80
2019-03-20T04:50:15.939Z,94826.41
2019-03-20T04:52:44.659Z,94833.66
2019-03-20T04:55:13.282Z,94837.06
2019-03-20T04:57:41.983Z,94829.37
2019-03-20T05:00:15.778Z,94842.14
2019-03-20T05:02:44.407Z,94846.53
2019-03-20T05:05:13.359Z,94847.89
2019-03-20T05:07:42.012Z,94848.25
2019-03-20T05:10:12.550Z,94855.47
2019-03-20T05:12:41.180Z,94863.74
2019-03-20T05:15:11.338Z,94867.28
2019-03-20T05:17:39.950Z,94863.73
2019-03-20T05:20:13.939Z,94873.31
2019-03-20T05:22:42.624Z,94887.09
2019-03-20T05:25:11.247Z,94883.50
2019-03-20T05:27:39.882Z,94889.38
2019-03-20T05:30:13.888Z,94892.14
2019-03-20T05:32:42.501Z,94892.73
2019-03-20T05:35:11.327Z,94899.78
2019-03-20T05:37:39.997Z,94893.84
2019-03-20T05:40:13.564Z,94905.64
2019-03-20T05:42:42.190Z,94897.92
2019-03-20T05:45:19.590Z,94896.73
2019-03-20T05:47:48.228Z,94901.16
2019-03-20T05:50:17.536Z,94907.80
2019-03-20T05:52:46.187Z,94922.02
2019-03-20T05:55:14.907Z,94922.36
2019-03-20T05:57:43.534Z,94928.28
2019-03-20T06:00:20.574Z,94929.92
2019-03-20T06:02:49.118Z,94923.47
2019-03-20T06:05:17.746Z,94923.47
2019-03-20T06:07:46.399Z,94937.25
2019-03-20T06:10:17.244Z,94940.05
2019-03-20T06:12:45.875Z,94943.81
2019-03-20T06:15:15.131Z,94947.59
2019-03-20T06:17:44.131Z,94950.97
2019-03-20T06:20:15.007Z,94921.89
2019-03-20T06:22:43.710Z,94951.72
2019-03-20T06:25:14.199Z,94961.39
2019-03-20T06:27:42.897Z,94967.95
2019-03-20T06:30:17.297Z,94961.38
2019-03-20T06:32:45.919Z,94965.20
2019-03-20T06:35:14.553Z,94961.00
2019-03-20T06:37:43.232Z,94966.32
2019-03-20T06:40:18.016Z,94960.01
2019-03-20T06:42:46.651Z,94960.01
2019-03-20T06:45:22.067Z,94963.41
2019-03-20T06:47:50.688Z,94964.33
2019-03-20T06:50:23.347Z,94967.53
2019-03-20T06:52:51.994Z,94960.17
2019-03-20T06:55:20.624Z,94971.27
2019-03-20T06:57:49.240Z,94974.06
2019-03-20T07:00:43.378Z,94975.48
2019-03-20T07:03:23.693Z,94976.04
2019-03-20T07:06:14.571Z,94966.62
2019-03-20T07:09:08.402Z,94966.62
2019-03-20T07:11:39.976Z,94973.38
2019-03-20T07:14:08.598Z,94974.73
2019-03-20T07:16:37.228Z,94978.97
2019-03-20T07:19:06.098Z,94971.90
2019-03-20T07:21:34.877Z,94968.02
2019-03-20T07:24:03.428Z,94970.16
2019-03-20T07:26:32.021Z,94964.91
2019-03-20T07:29:00.642Z,94949.33
2019-03-20T07:31:29.298Z,94959.95
2019-03-20T07:33:57.939Z,94958.98
2019-03-20T07:36:26.653Z,94963.48
2019-03-20T07:38:56.598Z,94964.70
2019-03-20T07:41:25.258Z,94964.63
2019-03-20T07:43:53.891Z,94958.32
2019-03-20T07:46:22.526Z,94964.73
2019-03-20T07:48:51.111Z,94963.91
2019-03-20T07:51:19.744Z,94965.51
2019-03-20T07:53:48.227Z,94965.03
2019-03-20T07:56:16.914Z,94962.16
2019-03-20T07:58:45.540Z,94966.51
2019-03-20T08:01:14.179Z,94962.86
2019-03-20T08:03:42.777Z,94966.89
2019-03-20T08:06:11.406Z,94970.18
2019-03-20T08:08:40.034Z,94967.75
2019-03-20T08:11:08.723Z,94962.81
2019-03-20T08:13:37.320Z,94967.43
2019-03-20T08:16:05.948Z,94966.12
2019-03-20T08:18:34.526Z,94962.20
2019-03-20T08:21:03.227Z,94954.22
2019-03-20T08:23:32.300Z,94962.01
2019-03-20T08:26:00.904Z,94956.73
2019-03-20T08:28:29.452Z,94962.68
2019-03-20T08:30:58.012Z,94960.50
2019-03-20T08:33:26.678Z,94956.55
2019-03-20T08:35:55.314Z,94958.41
2019-03-20T08:38:23.882Z,94959.76
2019-03-20T08:40:52.546Z,94956.39
2019-03-20T08:43:21.120Z,94956.08
2019-03-20T08:45:49.748Z,94951.94
2019-03-20T08:48:18.413Z,94947.66
2019-03-20T08:50:47.036Z,94951.42
2019-03-20T08:53:15.662Z,94945.81
2019-03-20T08:55:44.422Z,94947.58
2019-03-20T08:58:13.046Z,94946.59
2019-03-20T09:00:41.743Z,94945.52
2019-03-20T09:03:10.422Z,94948.91
2019-03-20T09:05:39.052Z,94946.27
2019-03-20T09:08:07.676Z,94953.47
2019-03-20T09:10:36.336Z,94946.91
2019-03-20T09:13:04.983Z,94950.02
2019-03-20T09:15:33.600Z,94942.80
2019-03-20T09:18:02.284Z,94943.47
2019-03-20T09:20:30.898Z,94939.87
2019-03-20T09:22:59.533Z,94943.44
2019-03-20T09:25:28.142Z,94937.52
2019-03-20T09:27:56.755Z,94937.64
2019-03-20T09:30:27.148Z,94941.33
2019-03-20T09:32:56.013Z,94941.10
2019-03-20T09:35:24.694Z,94945.14
2019-03-20T09:37:53.291Z,94946.47
2019-03-20T09:40:23.819Z,94933.90
2019-03-20T09:42:52.657Z,94935.84
2019-03-20T09:45:23.132Z,94938.98
2019-03-20T09:47:51.780Z,94934.99
2019-03-20T09:50:27.031Z,94932.59
2019-03-20T09:52:55.686Z,94928.31
2019-03-20T09:55:24.328Z,94920.09
2019-03-20T09:57:52.966Z,94922.64
2019-03-20T10:00:29.178Z,94926.00
2019-03-20T10:02:57.820Z,94923.84
2019-03-20T10:05:26.442Z,94920.98
2019-03-20T10:07:55.113Z,94921.22
2019-03-20T10:10:31.243Z,94920.69
2019-03-20T10:12:59.826Z,94914.55
2019-03-20T10:15:31.472Z,94919.56
2019-03-20T10:18:00.110Z,94913.61
2019-03-20T10:20:28.742Z,94912.22
2019-03-20T10:22:57.404Z,94919.14
2019-03-20T10:25:26.018Z,94917.47
2019-03-20T10:27:54.573Z,94919.82
2019-03-20T10:30:27.869Z,94920.88
2019-03-20T10:32:56.499Z,94920.63
2019-03-20T10:35:25.431Z,94911.78
2019-03-20T10:37:54.094Z,94914.59
2019-03-20T10:40:23.044Z,94911.17
2019-03-20T10:42:51.653Z,94913.05
2019-03-20T10:45:20.717Z,94895.69
2019-03-20T10:47:52.686Z,94898.98
2019-03-20T10:50:24.146Z,94896.56
2019-03-20T10:52:52.822Z,94903.72
2019-03-20T10:55:21.426Z,94892.65
2019-03-20T10:57:50.063Z,94894.00
2019-03-20T11:00:23.063Z,94890.23
2019-03-20T11:02:51.692Z,94900.73
2019-03-20T11:05:21.254Z,94887.16
2019-03-20T11:07:49.993Z,94888.28
2019-03-20T11:10:23.022Z,94889.11
2019-03-20T11:12:51.815Z,94882.98
2019-03-20T11:15:21.185Z,94882.65
2019-03-20T11:17:49.832Z,94881.77
2019-03-20T11:20:19.239Z,94873.41
2019-03-20T11:22:48.081Z,94880.07
2019-03-20T11:25:29.454Z,94874.16
2019-03-20T11:27:58.129Z,94865.45
2019-03-20T11:30:30.453Z,94871.84
2019-03-20T11:32:59.079Z,94871.78
2019-03-20T11:35:27.751Z,94870.28
2019-03-20T11:37:56.371Z,94872.47
2019-03-20T11:40:32.875Z,94870.62
2019-03-20T11:43:01.504Z,94868.50
2019-03-20T11:45:30.138Z,94871.65
2019-03-20T11:47:58.806Z,94862.31
2019-03-20T11:50:40.816Z,94862.58
2019-03-20T11:53:10.170Z,94867.93
2019-03-20T11:55:39.101Z,94858.09
2019-03-20T11:58:07.929Z,94862.95
2019-03-20T12:00:36.798Z,94852.97
2019-03-20T12:03:05.822Z,94854.28
2019-03-20T12:05:34.453Z,94856.93
2019-03-20T12:08:03.235Z,94857.66
2019-03-20T12:10:35.329Z,94864.74
2019-03-20T12:13:03.951Z,94861.78
2019-03-20T12:15:32.626Z,94865.69
2019-03-20T12:18:01.262Z,94859.88
2019-03-20T12:20:29.883Z,94848.10
2019-03-20T12:22:58.647Z,94851.34
2019-03-20T12:25:33.528Z,94844.08
2019-03-20T12:28:02.196Z,94853.16
2019-03-20T12:30:38.499Z,94844.62
2019-03-20T12:33:07.333Z,94847.07
2019-03-20T12:35:46.737Z,94842.90
2019-03-20T12:38:15.678Z,94844.06
2019-03-20T12:40:44.407Z,94847.31
2019-03-20T12:43:13.014Z,94838.42
2019-03-20T12:45:41.681Z,94842.41
2019-03-20T12:48:11.806Z,94841.86
2019-03-20T12:50:40.433Z,94835.01
2019-03-20T12:53:11.432Z,94837.96
2019-03-20T12:55:40.130Z,94842.95
2019-03-20T12:58:08.756Z,94842.53
2019-03-20T13:00:37.418Z,94845.91
2019-03-20T13:03:06.054Z,94846.32
2019-03-20T13:05:34.680Z,94845.44
2019-03-20T13:08:06.045Z,94843.22
2019-03-20T13:10:33.704Z,94842.22
2019-03-20T13:13:02.364Z,94848.05
2019-03-20T13:15:33.311Z,94843.59
2019-03-20T13:18:01.362Z,94843.11
2019-03-20T13:20:29.992Z,94850.02
2019-03-20T13:23:01.349Z,94846.33
2019-03-20T13:25:29.967Z,94845.95
2019-03-20T13:27:58.600Z,94852.65
2019-03-20T13:30:45.386Z,94850.30
2019-03-20T13:33:24.976Z,94846.41
2019-03-20T13:35:45.114Z,94856.25
2019-03-20T13:38:13.776Z,94847.94
2019-03-20T13:40:42.398Z,94853.95
2019-03-20T13:43:11.036Z,94856.47
2019-03-20T13:45:39.691Z,94848.48
2019-03-20T13:48:08.315Z,94856.31
2019-03-20T13:50:36.948Z,94857.75
2019-03-20T13:53:05.610Z,94858.88
2019-03-20T13:55:34.237Z,94850.04
2019-03-20T13:58:02.867Z,94857.47
2019-03-20T14:00:31.524Z,94859.11
2019-03-20T14:03:00.150Z,94854.00
2019-03-20T14:05:28.775Z,94861.57
2019-03-20T14:07:57.447Z,94865.90
2019-03-20T14:10:29.910Z,94869.08
2019-03-20T14:12:58.540Z,94868.86
2019-03-20T14:15:27.208Z,94870.15
2019-03-20T14:17:55.828Z,94861.75
2019-03-20T14:20:32.560Z,94870.73
2019-03-20T14:23:01.210Z,94861.06
2019-03-20T14:25:29.838Z,94867.08
2019-03-20T14:27:58.492Z,94865.47
2019-03-20T14:30:27.787Z,94872.48
2019-03-20T14:32:56.717Z,94868.72
2019-03-20T14:35:26.307Z,94866.89
2019-03-20T14:37:54.936Z,94870.80
2019-03-20T14:40:37.446Z,94873.50
2019-03-20T14:43:00.755Z,94876.41
2019-03-20T14:45:29.441Z,94876.10
2019-03-20T14:47:58.072Z,94881.06
2019-03-20T14:50:30.772Z,94892.08
2019-03-20T14:52:59.396Z,94885.16
2019-03-20T14:55:28.023Z,94898.69
2019-03-20T14:57:56.690Z,94894.01
2019-03-20T15:00:26.581Z,94905.54
2019-03-20T15:02:55.209Z,94897.03
2019-03-20T15:05:23.880Z,94904.02
2019-03-20T15:07:52.504Z,94898.81
2019-03-20T15:10:25.811Z,94904.14
2019-03-20T15:12:54.783Z,94903.99
2019-03-20T15:15:38.305Z,94911.41
2019-03-20T15:18:07.470Z,94912.27
2019-03-20T15:20:36.104Z,94905.91
2019-03-20T15:23:04.731Z,94924.63
2019-03-20T15:25:33.389Z,94920.80
2019-03-20T15:28:02.018Z,94924.47
2019-03-20T15:30:30.632Z,94926.19
2019-03-20T15:32:59.299Z,94932.45
2019-03-20T15:35:27.930Z,94939.64
2019-03-20T15:37:56.551Z,94944.48
2019-03-20T15:40:26.614Z,94959.54
2019-03-20T15:42:55.250Z,94966.95
2019-03-20T15:45:23.972Z,94961.58
2019-03-20T15:47:52.636Z,94965.97
2019-03-20T15:50:24.171Z,94970.55
2019-03-20T15:52:52.802Z,94975.38
2019-03-20T15:55:32.476Z,94986.37
2019-03-20T15:58:01.106Z,94987.64
2019-03-20T16:00:29.735Z,94991.68
2019-03-20T16:03:04.058Z,94992.89
2019-03-20T16:05:32.682Z,95002.34
2019-03-20T16:08:01.311Z,95004.23
2019-03-20T16:10:29.981Z,95012.00
2019-03-20T16:12:58.610Z,95019.32
2019-03-20T16:15:27.311Z,95013.58
2019-03-20T16:17:55.976Z,95018.02
2019-03-20T16:20:24.606Z,95021.33
2019-03-20T16:22:53.227Z,95028.17
2019-03-20T16:25:23.089Z,95032.23
2019-03-20T16:27:51.717Z,95033.67
2019-03-20T16:30:33.067Z,95038.81
2019-03-20T16:33:01.691Z,95044.48
2019-03-20T16:35:30.329Z,95056.23
2019-03-20T16:37:58.982Z,95059.42
2019-03-20T16:40:31.923Z,95068.98
2019-03-20T16:43:00.574Z,95076.33
2019-03-20T16:45:36.883Z,95078.73
2019-03-20T16:48:06.213Z,95082.33
2019-03-20T16:50:34.839Z,95085.45
2019-03-20T16:53:03.505Z,95087.55
2019-03-20T16:55:32.195Z,95095.19
2019-03-20T16:58:00.822Z,95093.55
2019-03-20T17:00:32.796Z,95097.86
2019-03-20T17:03:01.865Z,95095.62
2019-03-20T17:05:33.236Z,95112.05
2019-03-20T17:08:02.127Z,95114.61
2019-03-20T17:10:41.051Z,95117.83
2019-03-20T17:13:09.701Z,95125.07
2019-03-20T17:15:43.090Z,95125.51
2019-03-20T17:18:11.714Z,95134.50
2019-03-20T17:20:40.483Z,95138.30
2019-03-20T17:23:09.115Z,95147.80
2019-03-20T17:25:37.759Z,95145.14
2019-03-20T17:28:06.829Z,95155.20
2019-03-20T17:30:40.880Z,95154.09
2019-03-20T17:33:09.512Z,95161.70
2019-03-20T17:35:38.168Z,95161.80
2019-03-20T17:38:06.814Z,95166.22
2019-03-20T17:40:35.448Z,95166.63
2019-03-20T17:43:04.403Z,95171.08
2019-03-20T17:45:33.411Z,95177.82
2019-03-20T17:48:02.046Z,95177.62
2019-03-20T17:50:34.748Z,95180.03
2019-03-20T17:53:04.780Z,95178.80
2019-03-20T17:55:33.411Z,95183.73
2019-03-20T17:58:02.079Z,95189.53
2019-03-20T18:00:33.155Z,95193.89
2019-03-20T18:03:01.838Z,95197.22
2019-03-20T18:05:30.466Z,95199.59
2019-03-20T18:07:59.092Z,95200.21
2019-03-20T18:10:27.733Z,95204.52
2019-03-20T18:12:56.411Z,95206.87
2019-03-20T18:15:25.051Z,95208.84
2019-03-20T18:17:53.678Z,95211.26
2019-03-20T18:20:22.336Z,95215.49
2019-03-20T18:22:50.978Z,95218.07
2019-03-20T18:25:19.608Z,95218.50
2019-03-20T18:27:48.268Z,95223.28
2019-03-20T18:30:19.802Z,95229.27
2019-03-20T18:32:48.437Z,95235.46
2019-03-20T18:35:17.616Z,95234.79
2019-03-20T18:37:46.235Z,95240.09
2019-03-20T18:40:16.670Z,95242.25
2019-03-20T18:42:45.380Z,95240.33
2019-03-20T18:45:23.972Z,95246.24
2019-03-20T18:47:52.647Z,95244.69
2019-03-20T18:50:22.075Z,95242.78
2019-03-20T18:52:50.906Z,95242.66
2019-03-20T18:55:20.223Z,95241.97
2019-03-20T18:57:49.254Z,95246.14
2019-03-20T19:00:28.163Z,95246.61
2019-03-20T19:03:14.451Z,95255.22
2019-03-20T19:05:55.149Z,95250.73
2019-03-20T19:08:23.915Z,95250.27
2019-03-20T19:10:52.666Z,95240.88
2019-03-20T19:13:21.469Z,95245.60
2019-03-20T19:15:50.121Z,95257.23
2019-03-20T19:18:18.735Z,95254.98
2019-03-20T19:20:47.512Z,95258.56
2019-03-20T19:23:16.141Z,95260.34
2019-03-20T19:25:44.853Z,95267.31
2019-03-20T19:28:13.596Z,95264.01
2019-03-20T19:30:42.238Z,95264.82
2019-03-20T19:33:11.037Z,95264.38
2019-03-20T19:35:39.791Z,95263.19
2019-03-20T19:38:08.494Z,95269.26
2019-03-20T19:40:37.330Z,95268.37
2019-03-20T19:43:06.072Z,95276.56
2019-03-20T19:45:34.884Z,95268.63
2019-03-20T19:48:03.610Z,95272.06
2019-03-20T19:50:32.376Z,95270.02
2019-03-20T19:53:01.092Z,95278.20
2019-03-20T19:55:29.785Z,95281.36
2019-03-20T19:57:58.527Z,95275.03
2019-03-20T20:00:27.881Z,95273.02
2019-03-20T20:02:56.585Z,95275.64
2019-03-20T20:05:25.343Z,95274.19
2019-03-20T20:07:54.046Z,95275.32
2019-03-20T20:10:22.753Z,95274.00
2019-03-20T20:12:51.431Z,95276.70
2019-03-20T20:15:30.460Z,95275.14
2019-03-20T20:17:59.127Z,95281.52
2019-03-20T20:20:38.012Z,95279.16
2019-03-20T20:23:06.686Z,95282.82
2019-03-20T20:25:35.394Z,95286.30
2019-03-20T20:28:04.029Z,95288.19
2019-03-20T20:30:32.697Z,95287.86
2019-03-20T20:33:01.335Z,95288.30
2019-03-20T20:35:29.971Z,95297.95
2019-03-20T20:37:58.648Z,95295.14
2019-03-20T20:40:29.327Z,95302.16
2019-03-20T20:42:57.955Z,95300.06
2019-03-20T20:45:26.628Z,95293.53
2019-03-20T20:47:55.285Z,95295.19
2019-03-20T20:50:23.938Z,95296.53
2019-03-20T20:52:52.618Z,95296.69
2019-03-20T20:55:25.588Z,95297.94
2019-03-20T20:57:54.220Z,95303.48
2019-03-20T21:00:23.216Z,95301.83
2019-03-20T21:02:51.950Z,95297.92
2019-03-20T21:05:20.683Z,95299.45
2019-03-20T21:07:49.354Z,95294.28
2019-03-20T21:10:23.499Z,95301.98
2019-03-20T21:12:56.667Z,95298.90
2019-03-20T21:15:36.417Z,95295.42
2019-03-20T21:18:13.983Z,95296.38
2019-03-20T21:20:42.755Z,95297.52
2019-03-20T21:23:38.421Z,95297.27
2019-03-20T21:26:08.003Z,95295.42
2019-03-20T21:29:11.060Z,95303.67
2019-03-20T21:31:42.673Z,95307.20
2019-03-20T21:34:28.965Z,95302.81
2019-03-20T21:37:33.295Z,95309.92
2019-03-20T21:40:01.938Z,95315.89
2019-03-20T21:42:33.464Z,95311.77
2019-03-20T21:45:19.746Z,95309.36
2019-03-20T21:47:48.384Z,95315.36
2019-03-20T21:50:34.660Z,95318.61
2019-03-20T21:53:03.292Z,95322.07
2019-03-20T21:56:07.951Z,95323.94
2019-03-20T21:58:38.919Z,95325.02
2019-03-20T22:01:32.765Z,95316.83
2019-03-20T22:04:01.414Z,95317.69
2019-03-20T22:06:36.052Z,95315.27
2019-03-20T22:09:07.655Z,95321.07
2019-03-20T22:11:39.191Z,95327.20
2019-03-20T22:14:10.422Z,95324.11
2019-03-20T22:17:13.334Z,95325.53
2019-03-20T22:19:47.859Z,95326.62
2019-03-20T22:22:28.056Z,95334.97
2019-03-20T22:25:18.526Z,95339.83
2019-03-20T22:28:11.119Z,95339.30
2019-03-20T22:30:39.849Z,95333.81
2019-03-20T22:33:30.810Z,95343.50
2019-03-20T22:35:59.474Z,95341.58
2019-03-20T22:38:31.023Z,95344.27
2019-03-20T22:41:05.276Z,95350.77
2019-03-20T22:43:36.815Z,95351.48
2019-03-20T22:46:30.693Z,95351.87
2019-03-20T22:49:20.249Z,95354.46
2019-03-20T22:52:26.450Z,95355.81
2019-03-20T22:55:26.310Z,95355.34
2019-03-20T22:58:18.444Z,95351.42
2019-03-20T23:00:50.282Z,95357.36
2019-03-20T23:03:27.784Z,95361.28
2019-03-20T23:05:56.416Z,95363.42
2019-03-20T23:08:25.045Z,95365.95
2019-03-20T23:10:53.712Z,95363.64
2019-03-20T23:13:22.336Z,95368.19
2019-03-20T23:15:51.477Z,95363.53
2019-03-20T23:18:20.439Z,95364.21
2019-03-20T23:20:49.069Z,95358.35
2019-03-20T23:23:17.709Z,95364.19
2019-03-20T23:25:46.370Z,95364.06
2019-03-20T23:28:14.996Z,95366.19
2019-03-20T23:30:43.630Z,95364.77
2019-03-20T23:33:12.292Z,95359.33
2019-03-20T23:35:40.911Z,95364.88
2019-03-20T23:38:09.615Z,95366.16
2019-03-20T23:40:38.300Z,95368.91
2019-03-20T23:43:11.819Z,95369.66
2019-03-20T23:45:40.453Z,95373.39
2019-03-20T23:48:42.098Z,95370.72
2019-03-20T23:51:25.366Z,95370.66
2019-03-20T23:53:54.630Z,95373.30
2019-03-20T23:56:24.269Z,95376.45
2019-03-20T23:58:52.904Z,95372.48
